Time,TemperatureF,DewpointF,PressureIn,WindDirection,WindDirectionDegrees,WindSpeedMPH,WindSpeedGustMPH,Humidity,HourlyPrecipIn,Conditions,Clouds,dailyrainin,SoftwareType,DateUTC
2013-02-20 00:00:00,20.0,9.0,-100.00,North,-999,-999.0,-999.0,63,-99.99,,,-99.99,,2013-02-20 07:00:00,
2013-02-20 00:32:00,20.0,9.0,-100.00,North,-999,-999.0,-999.0,63,-99.99,,,-99.99,,2013-02-20 07:32:00,
2013-02-20 00:42:00,20.0,9.0,-100.00,North,-999,-999.0,-999.0,63,-99.99,,,-99.99,,2013-02-20 07:42:00,
2013-02-20 00:52:00,20.0,9.0,-100.00,North,-999,-999.0,-999.0,63,-99.99,,,-99.99,,2013-02-20 07:52:00,
2013-02-20 02:00:00,22.0,14.0,-100.00,North,-999,-999.0,-999.0,68,-99.99,,,-99.99,,2013-02-20 09:00:00,
2013-02-20 02:32:00,22.0,14.0,-100.00,North,-999,-999.0,-999.0,68,-99.99,,,-99.99,,2013-02-20 09:32:00,
2013-02-20 02:42:00,22.0,14.0,-100.00,North,-999,-999.0,-999.0,68,-99.99,,,-99.99,,2013-02-20 09:42:00,
2013-02-20 02:52:00,22.0,14.0,-100.00,North,-999,-999.0,-999.0,68,-99.99,,,-99.99,,2013-02-20 09:52:00,
2013-02-20 03:00:00,22.0,13.0,-100.00,North,-999,-999.0,-999.0,67,-99.99,,,-99.99,,2013-02-20 10:00:00,
2013-02-20 03:32:00,22.0,13.0,-100.00,North,-999,-999.0,-999.0,67,-99.99,,,-99.99,,2013-02-20 10:32:00,
2013-02-20 03:42:00,22.0,13.0,-100.00,North,-999,-999.0,-999.0,67,-99.99,,,-99.99,,2013-02-20 10:42:00,
2013-02-20 03:52:00,22.0,13.0,-100.00,North,-999,-999.0,-999.0,67,-99.99,,,-99.99,,2013-02-20 10:52:00,
2013-02-20 04:00:00,22.0,12.0,-100.00,North,-999,-999.0,-999.0,62,-99.99,,,-99.99,,2013-02-20 11:00:00,
2013-02-20 04:32:00,22.0,12.0,-100.00,North,-999,-999.0,-999.0,62,-99.99,,,-99.99,,2013-02-20 11:32:00,
2013-02-20 04:42:00,22.0,12.0,-100.00,North,-999,-999.0,-999.0,62,-99.99,,,-99.99,,2013-02-20 11:42:00,
2013-02-20 04:52:00,22.0,12.0,-100.00,North,-999,-999.0,-999.0,62,-99.99,,,-99.99,,2013-02-20 11:52:00,
2013-02-20 05:00:00,21.0,13.0,-100.00,North,-999,-999.0,-999.0,69,-99.99,,,-99.99,,2013-02-20 12:00:00,
2013-02-20 05:32:00,21.0,13.0,-100.00,North,-999,-999.0,-999.0,69,-99.99,,,-99.99,,2013-02-20 12:32:00,
2013-02-20 05:42:00,21.0,13.0,-100.00,North,-999,-999.0,-999.0,69,-99.99,,,-99.99,,2013-02-20 12:42:00,
2013-02-20 05:52:00,21.0,13.0,-100.00,North,-999,-999.0,-999.0,69,-99.99,,,-99.99,,2013-02-20 12:52:00,
2013-02-20 06:00:00,19.0,13.0,-100.00,North,-999,-999.0,-999.0,74,-99.99,,,-99.99,,2013-02-20 13:00:00,
2013-02-20 06:32:00,19.0,13.0,-100.00,North,-999,-999.0,-999.0,74,-99.99,,,-99.99,,2013-02-20 13:32:00,
2013-02-20 06:42:00,19.0,13.0,-100.00,North,-999,-999.0,-999.0,74,-99.99,,,-99.99,,2013-02-20 13:42:00,
2013-02-20 06:52:00,19.0,13.0,-100.00,North,-999,-999.0,-999.0,74,-99.99,,,-99.99,,2013-02-20 13:52:00,
2013-02-20 07:00:00,19.0,12.0,-100.00,North,-999,-999.0,-999.0,75,-99.99,,,-99.99,,2013-02-20 14:00:00,
2013-02-20 07:32:00,19.0,12.0,-100.00,North,-999,-999.0,-999.0,75,-99.99,,,-99.99,,2013-02-20 14:32:00,
2013-02-20 07:42:00,19.0,12.0,-100.00,North,-999,-999.0,-999.0,75,-99.99,,,-99.99,,2013-02-20 14:42:00,
2013-02-20 07:52:00,19.0,12.0,-100.00,North,-999,-999.0,-999.0,75,-99.99,,,-99.99,,2013-02-20 14:52:00,
2013-02-20 08:00:00,22.0,16.0,-100.00,North,-999,-999.0,-999.0,78,-99.99,,,-99.99,,2013-02-20 15:00:00,
2013-02-20 08:32:00,22.0,16.0,-100.00,North,-999,-999.0,-999.0,78,-99.99,,,-99.99,,2013-02-20 15:32:00,
2013-02-20 08:42:00,22.0,16.0,-100.00,North,-999,-999.0,-999.0,78,-99.99,,,-99.99,,2013-02-20 15:42:00,
2013-02-20 08:52:00,22.0,16.0,-100.00,North,-999,-999.0,-999.0,78,-99.99,,,-99.99,,2013-02-20 15:52:00,
2013-02-20 09:00:00,25.0,16.0,-100.00,North,-999,-999.0,-999.0,70,-99.99,,,-99.99,,2013-02-20 16:00:00,
2013-02-20 09:42:00,25.0,16.0,-100.00,North,-999,-999.0,-999.0,70,-99.99,,,-99.99,,2013-02-20 16:42:00,
2013-02-20 09:52:00,25.0,16.0,-100.00,North,-999,-999.0,-999.0,70,-99.99,,,-99.99,,2013-02-20 16:52:00,
2013-02-20 10:00:00,27.0,15.0,-100.00,North,-999,-999.0,-999.0,60,-99.99,,,-99.99,,2013-02-20 17:00:00,
2013-02-20 10:32:00,27.0,15.0,-100.00,North,-999,-999.0,-999.0,60,-99.99,,,-99.99,,2013-02-20 17:32:00,
2013-02-20 10:42:00,27.0,15.0,-100.00,North,-999,-999.0,-999.0,60,-99.99,,,-99.99,,2013-02-20 17:42:00,
2013-02-20 10:52:00,27.0,15.0,-100.00,North,-999,-999.0,-999.0,60,-99.99,,,-99.99,,2013-02-20 17:52:00,
2013-02-20 11:00:00,29.0,13.0,-100.00,North,-999,-999.0,-999.0,51,-99.99,,,-99.99,,2013-02-20 18:00:00,
2013-02-20 11:32:00,29.0,13.0,-100.00,North,-999,-999.0,-999.0,51,-99.99,,,-99.99,,2013-02-20 18:32:00,
2013-02-20 11:42:00,29.0,13.0,-100.00,North,-999,-999.0,-999.0,51,-99.99,,,-99.99,,2013-02-20 18:42:00,
2013-02-20 11:52:00,29.0,13.0,-100.00,North,-999,-999.0,-999.0,51,-99.99,,,-99.99,,2013-02-20 18:52:00,
2013-02-20 12:00:00,30.0,15.0,-100.00,North,-999,-999.0,-999.0,53,-99.99,,,-99.99,,2013-02-20 19:00:00,
2013-02-20 12:32:00,30.0,15.0,-100.00,North,-999,-999.0,-999.0,53,-99.99,,,-99.99,,2013-02-20 19:32:00,
2013-02-20 12:42:00,30.0,15.0,-100.00,North,-999,-999.0,-999.0,53,-99.99,,,-99.99,,2013-02-20 19:42:00,
2013-02-20 12:52:00,30.0,15.0,-100.00,North,-999,-999.0,-999.0,53,-99.99,,,-99.99,,2013-02-20 19:52:00,
2013-02-20 13:00:00,30.0,17.0,-100.00,North,-999,-999.0,-999.0,58,-99.99,,,-99.99,,2013-02-20 20:00:00,
2013-02-20 13:31:00,30.0,17.0,-100.00,North,-999,-999.0,-999.0,58,-99.99,,,-99.99,,2013-02-20 20:31:00,
2013-02-20 13:41:00,30.0,17.0,-100.00,North,-999,-999.0,-999.0,58,-99.99,,,-99.99,,2013-02-20 20:41:00,
2013-02-20 13:51:00,30.0,17.0,-100.00,North,-999,-999.0,-999.0,58,-99.99,,,-99.99,,2013-02-20 20:51:00,
2013-02-20 14:00:00,27.0,20.0,-100.00,North,-999,-999.0,-999.0,73,-99.99,,,-99.99,,2013-02-20 21:00:00,
2013-02-20 14:32:00,27.0,20.0,-100.00,North,-999,-999.0,-999.0,73,-99.99,,,-99.99,,2013-02-20 21:32:00,
2013-02-20 14:42:00,27.0,20.0,-100.00,North,-999,-999.0,-999.0,73,-99.99,,,-99.99,,2013-02-20 21:42:00,
2013-02-20 14:52:00,27.0,20.0,-100.00,North,-999,-999.0,-999.0,73,-99.99,,,-99.99,,2013-02-20 21:52:00,
2013-02-20 15:00:00,28.0,21.0,-100.00,North,-999,-999.0,-999.0,76,-99.99,,,-99.99,,2013-02-20 22:00:00,
2013-02-20 15:32:00,28.0,21.0,-100.00,North,-999,-999.0,-999.0,76,-99.99,,,-99.99,,2013-02-20 22:32:00,
2013-02-20 15:43:00,28.0,21.0,-100.00,North,-999,-999.0,-999.0,76,-99.99,,,-99.99,,2013-02-20 22:43:00,
2013-02-20 15:51:00,28.0,21.0,-100.00,North,-999,-999.0,-999.0,76,-99.99,,,-99.99,,2013-02-20 22:51:00,
2013-02-20 16:00:00,24.0,21.0,-100.00,North,-999,-999.0,-999.0,86,-99.99,,,-99.99,,2013-02-20 23:00:00,
2013-02-20 16:32:00,24.0,21.0,-100.00,North,-999,-999.0,-999.0,86,-99.99,,,-99.99,,2013-02-20 23:32:00,
2013-02-20 16:42:00,24.0,21.0,-100.00,North,-999,-999.0,-999.0,86,-99.99,,,-99.99,,2013-02-20 23:42:00,
2013-02-20 16:52:00,24.0,21.0,-100.00,North,-999,-999.0,-999.0,86,-99.99,,,-99.99,,2013-02-20 23:52:00,
2013-02-20 17:00:00,23.0,20.0,-100.00,North,-999,-999.0,-999.0,89,-99.99,,,-99.99,,2013-02-21 00:00:00,
2013-02-20 17:32:00,23.0,20.0,-100.00,North,-999,-999.0,-999.0,89,-99.99,,,-99.99,,2013-02-21 00:32:00,
2013-02-20 17:42:00,23.0,20.0,-100.00,North,-999,-999.0,-999.0,89,-99.99,,,-99.99,,2013-02-21 00:42:00,
2013-02-20 17:52:00,23.0,20.0,-100.00,North,-999,-999.0,-999.0,89,-99.99,,,-99.99,,2013-02-21 00:52:00,
2013-02-20 18:00:00,22.0,20.0,-100.00,North,-999,-999.0,-999.0,93,-99.99,,,-99.99,,2013-02-21 01:00:00,
2013-02-20 18:32:00,22.0,20.0,-100.00,North,-999,-999.0,-999.0,93,-99.99,,,-99.99,,2013-02-21 01:32:00,
2013-02-20 18:42:00,22.0,20.0,-100.00,North,-999,-999.0,-999.0,93,-99.99,,,-99.99,,2013-02-21 01:42:00,
2013-02-20 18:52:00,22.0,20.0,-100.00,North,-999,-999.0,-999.0,93,-99.99,,,-99.99,,2013-02-21 01:52:00,
2013-02-20 19:00:00,21.0,20.0,-100.00,North,-999,-999.0,-999.0,94,-99.99,,,-99.99,,2013-02-21 02:00:00,
2013-02-20 19:32:00,21.0,20.0,-100.00,North,-999,-999.0,-999.0,94,-99.99,,,-99.99,,2013-02-21 02:32:00,
2013-02-20 19:42:00,21.0,20.0,-100.00,North,-999,-999.0,-999.0,94,-99.99,,,-99.99,,2013-02-21 02:42:00,
2013-02-20 19:52:00,21.0,20.0,-100.00,North,-999,-999.0,-999.0,94,-99.99,,,-99.99,,2013-02-21 02:52:00,
2013-02-20 20:00:00,21.0,20.0,-100.00,North,-999,-999.0,-999.0,94,-99.99,,,-99.99,,2013-02-21 03:00:00,
2013-02-20 20:32:00,21.0,20.0,-100.00,North,-999,-999.0,-999.0,94,-99.99,,,-99.99,,2013-02-21 03:32:00,
2013-02-20 20:42:00,21.0,20.0,-100.00,North,-999,-999.0,-999.0,94,-99.99,,,-99.99,,2013-02-21 03:42:00,
2013-02-20 20:52:00,21.0,20.0,-100.00,North,-999,-999.0,-999.0,94,-99.99,,,-99.99,,2013-02-21 03:52:00,
2013-02-20 21:00:00,20.0,19.0,-100.00,North,-999,-999.0,-999.0,95,-99.99,,,-99.99,,2013-02-21 04:00:00,
2013-02-20 21:32:00,20.0,19.0,-100.00,North,-999,-999.0,-999.0,95,-99.99,,,-99.99,,2013-02-21 04:32:00,
2013-02-20 21:42:00,20.0,19.0,-100.00,North,-999,-999.0,-999.0,95,-99.99,,,-99.99,,2013-02-21 04:42:00,
2013-02-20 21:52:00,20.0,19.0,-100.00,North,-999,-999.0,-999.0,95,-99.99,,,-99.99,,2013-02-21 04:52:00,
2013-02-20 22:00:00,20.0,19.0,-100.00,North,-999,-999.0,-999.0,95,-99.99,,,-99.99,,2013-02-21 05:00:00,
2013-02-20 22:37:00,20.0,19.0,-100.00,North,-999,-999.0,-999.0,95,-99.99,,,-99.99,,2013-02-21 05:37:00,
2013-02-20 22:46:00,20.0,19.0,-100.00,North,-999,-999.0,-999.0,95,-99.99,,,-99.99,,2013-02-21 05:46:00,
2013-02-20 22:58:00,20.0,19.0,-100.00,North,-999,-999.0,-999.0,95,-99.99,,,-99.99,,2013-02-21 05:58:00,
2013-02-20 23:00:00,19.0,18.0,-100.00,North,-999,-999.0,-999.0,94,-99.99,,,-99.99,,2013-02-21 06:00:00,
2013-02-20 23:31:00,19.0,18.0,-100.00,North,-999,-999.0,-999.0,94,-99.99,,,-99.99,,2013-02-21 06:31:00,
2013-02-20 23:41:00,19.0,18.0,-100.00,North,-999,-999.0,-999.0,94,-99.99,,,-99.99,,2013-02-21 06:41:00,
2013-02-20 23:51:00,19.0,18.0,-100.00,North,-999,-999.0,-999.0,94,-99.99,,,-99.99,,2013-02-21 06:51:00,